Time;durP1;ratioP1;P1;durP2;ratioP2;P2;SDS_P1;SDS_P2;PMS_P1;PMS_P2;Temp;Humidity;BMP_temperature;BMP_pressure;BME280_temperature;BME280_humidity;BME280_pressure;Samples;Min_cycle;Max_cycle;Signal;HPM_P1;HPM_P2
2021/05/24 00:01:37;;;;;;;4.60;3.40;;;;;;;9.80;100.00;100812.31;4963580;28;20229;-80
2021/05/24 00:04:05;;;;;;;5.37;3.17;;;;;;;9.83;100.00;100800.91;4995305;28;20635;-80
2021/05/24 00:06:34;;;;;;;5.17;3.37;;;;;;;9.86;100.00;100802.28;4994132;28;20228;-80
2021/05/24 00:09:02;;;;;;;4.17;2.93;;;;;;;9.80;100.00;100801.47;4979106;28;20209;-81
2021/05/24 00:11:28;;;;;;;3.93;3.47;;;;;;;9.88;100.00;100798.22;4956304;28;20226;-80
2021/05/24 00:13:59;;;;;;;4.13;3.50;;;;;;;9.85;100.00;100793.31;4962902;28;20232;-81
2021/05/24 00:16:25;;;;;;;4.10;3.40;;;;;;;9.79;100.00;100799.81;4994934;28;20229;-80
2021/05/24 00:18:57;;;;;;;6.87;3.90;;;;;;;9.72;100.00;100788.38;4996320;28;20244;-80
2021/05/24 00:21:25;;;;;;;5.57;3.43;;;;;;;9.63;100.00;100792.69;4979309;28;20328;-81
2021/05/24 00:23:51;;;;;;;3.60;3.00;;;;;;;9.64;100.00;100791.59;4994733;28;20592;-80
2021/05/24 00:26:17;;;;;;;3.40;3.10;;;;;;;9.61;100.00;100786.72;4978628;28;20236;-80
2021/05/24 00:28:42;;;;;;;4.40;3.30;;;;;;;9.50;100.00;100776.03;4978287;28;20193;-80
2021/05/24 00:31:10;;;;;;;5.00;3.40;;;;;;;9.47;100.00;100773.03;4961786;28;20300;-80
2021/05/24 00:33:38;;;;;;;4.63;3.17;;;;;;;9.50;100.00;100767.09;4995077;28;20209;-81
2021/05/24 00:36:08;;;;;;;3.80;3.03;;;;;;;9.43;100.00;100767.34;4995766;28;20228;-79
2021/05/24 00:38:36;;;;;;;4.37;3.30;;;;;;;9.36;100.00;100765.94;4995555;28;20540;-81
2021/05/24 00:41:01;;;;;;;4.00;3.10;;;;;;;9.34;100.00;100762.66;4955748;28;20236;-80
2021/05/24 00:43:27;;;;;;;4.33;3.00;;;;;;;9.35;100.00;100758.88;4962089;28;20679;-79
2021/05/24 00:45:56;;;;;;;6.47;3.17;;;;;;;9.30;100.00;100756.97;4994117;28;20217;-81
2021/05/24 00:48:22;;;;;;;3.53;3.10;;;;;;;9.35;100.00;100753.47;4978835;28;20193;-80
2021/05/24 00:50:48;;;;;;;4.87;3.50;;;;;;;9.31;100.00;100752.34;4961986;28;20221;-81
2021/05/24 00:53:14;;;;;;;4.27;3.00;;;;;;;9.25;100.00;100753.41;4978375;28;20225;-81
2021/05/24 00:55:45;;;;;;;6.70;3.63;;;;;;;9.26;100.00;100744.19;4978598;28;20225;-81
2021/05/24 00:58:12;;;;;;;4.83;3.40;;;;;;;9.25;100.00;100746.09;4995203;28;20213;-80
2021/05/24 01:00:42;;;;;;;7.70;3.00;;;;;;;9.39;100.00;100749.16;4979539;28;20295;-81
2021/05/24 01:03:08;;;;;;;3.70;2.50;;;;;;;9.44;100.00;100741.84;4979021;28;20212;-81
2021/05/24 01:05:37;;;;;;;3.63;2.50;;;;;;;9.45;100.00;100731.81;4993961;28;20312;-82
2021/05/24 01:08:05;;;;;;;4.17;2.50;;;;;;;9.51;100.00;100730.78;4995574;28;20186;-81
2021/05/24 01:10:32;;;;;;;2.80;2.50;;;;;;;9.58;100.00;100733.00;4971763;28;20229;-81
2021/05/24 01:13:01;;;;;;;3.23;2.60;;;;;;;9.60;100.00;100730.84;4994289;28;20201;-80
2021/05/24 01:15:28;;;;;;;4.43;2.70;;;;;;;9.57;100.00;100719.69;4963480;28;20225;-81
2021/05/24 01:17:56;;;;;;;3.03;2.43;;;;;;;9.50;100.00;100718.31;4993703;28;20186;-79
2021/05/24 01:20:26;;;;;;;3.87;2.60;;;;;;;9.38;100.00;100717.72;4978042;28;20684;-79
2021/05/24 01:25:34;;;;;;;3.07;2.20;;;;;;;9.40;100.00;100723.69;4994219;28;20300;-79
2021/05/24 01:28:04;;;;;;;2.60;2.20;;;;;;;9.45;100.00;100710.13;4962840;28;20664;-80
2021/05/24 01:30:34;;;;;;;3.07;2.23;;;;;;;9.35;100.00;100710.09;4963523;28;20221;-79
2021/05/24 01:33:01;;;;;;;3.70;2.13;;;;;;;9.33;100.00;100704.13;5010562;28;20189;-79
2021/05/24 01:35:27;;;;;;;4.77;2.47;;;;;;;9.33;100.00;100707.66;4994113;28;20600;-82
2021/05/24 01:37:58;;;;;;;3.27;2.37;;;;;;;9.24;100.00;100701.09;5011633;28;20189;-80
2021/05/24 01:40:29;;;;;;;2.60;2.03;;;;;;;9.24;100.00;100694.84;4972659;28;20210;-81
2021/05/24 01:43:00;;;;;;;4.27;2.20;;;;;;;9.31;100.00;100709.00;4977871;28;20189;-81
2021/05/24 01:45:26;;;;;;;3.03;2.10;;;;;;;9.28;100.00;100704.09;4994378;28;20356;-80
2021/05/24 01:47:53;;;;;;;3.83;2.17;;;;;;;9.22;100.00;100707.84;4995099;28;20244;-80
2021/05/24 01:50:19;;;;;;;3.30;2.10;;;;;;;9.11;100.00;100706.16;5010509;28;20648;-80
2021/05/24 01:52:44;;;;;;;2.87;2.00;;;;;;;9.13;100.00;100695.06;4977418;28;20197;-81
2021/05/24 01:55:10;;;;;;;3.03;1.90;;;;;;;9.08;100.00;100703.97;4993864;28;20178;-80
2021/05/24 01:57:37;;;;;;;3.20;2.17;;;;;;;9.11;100.00;100692.59;4994412;28;20193;-82
2021/05/24 02:00:15;;;;;;;3.07;2.10;;;;;;;9.09;100.00;100689.34;4979004;28;20193;-80
2021/05/24 02:02:44;;;;;;;2.00;1.80;;;;;;;9.17;100.00;100688.84;4962649;28;20720;-79
2021/05/24 02:05:11;;;;;;;2.77;2.03;;;;;;;9.20;100.00;100685.63;4978790;28;20545;-80
2021/05/24 02:07:43;;;;;;;2.50;2.00;;;;;;;9.09;100.00;100681.22;4978328;28;20190;-79
2021/05/24 02:10:09;;;;;;;2.53;2.03;;;;;;;9.20;100.00;100676.69;4968886;28;20214;-78
2021/05/24 02:12:35;;;;;;;5.13;1.73;;;;;;;9.22;100.00;100684.28;4989628;28;20216;-79
2021/05/24 02:15:01;;;;;;;3.43;1.97;;;;;;;9.21;100.00;100693.50;4977810;28;20201;-79
2021/05/24 02:17:31;;;;;;;4.17;1.83;;;;;;;9.32;100.00;100688.94;4960468;28;20767;-79
2021/05/24 02:19:59;;;;;;;2.70;1.70;;;;;;;9.28;100.00;100687.81;4977716;28;20220;-79
2021/05/24 02:22:25;;;;;;;2.23;1.60;;;;;;;9.27;100.00;100686.22;4975780;28;20786;-79
2021/05/24 02:24:51;;;;;;;5.20;2.63;;;;;;;9.31;100.00;100679.19;4993517;28;20267;-80
2021/05/24 02:27:19;;;;;;;2.67;1.57;;;;;;;9.22;100.00;100676.16;4976708;28;20230;-80
2021/05/24 02:29:44;;;;;;;2.93;2.00;;;;;;;9.31;100.00;100671.06;4964141;28;20194;-79
2021/05/24 02:32:10;;;;;;;2.50;1.57;;;;;;;9.23;100.00;100682.41;4982570;28;20278;-79
2021/05/24 02:34:38;;;;;;;2.27;1.70;;;;;;;9.18;100.00;100676.13;4994675;28;20275;-79
2021/05/24 02:37:04;;;;;;;2.43;1.73;;;;;;;9.10;100.00;100680.16;4979603;28;20221;-80
2021/05/24 02:39:32;;;;;;;1.60;1.50;;;;;;;9.07;100.00;100675.25;5013431;28;20216;-81
2021/05/24 02:41:59;;;;;;;3.43;1.57;;;;;;;9.08;100.00;100676.88;4975604;28;20233;-81
2021/05/24 02:44:27;;;;;;;3.70;1.80;;;;;;;9.06;100.00;100683.63;4983509;28;20221;-81
2021/05/24 02:46:58;;;;;;;4.67;1.97;;;;;;;9.02;100.00;100677.91;5014567;28;20236;-80
2021/05/24 02:49:24;;;;;;;2.90;1.57;;;;;;;8.95;100.00;100674.63;5008739;28;20181;-81
2021/05/24 02:51:52;;;;;;;2.03;1.63;;;;;;;9.13;100.00;100676.91;4997698;28;20229;-81
2021/05/24 02:54:17;;;;;;;2.97;1.70;;;;;;;8.96;100.00;100678.97;4982550;28;20223;-80
2021/05/24 02:56:43;;;;;;;1.80;1.70;;;;;;;8.93;100.00;100684.91;4998857;28;20236;-82
2021/05/24 02:59:11;;;;;;;2.63;1.70;;;;;;;8.87;100.00;100661.56;4998082;28;20182;-80
2021/05/24 03:01:37;;;;;;;2.40;1.90;;;;;;;8.93;100.00;100679.47;4996468;28;20240;-80
2021/05/24 03:04:03;;;;;;;1.77;1.63;;;;;;;8.94;100.00;100675.72;4980373;28;20208;-81
2021/05/24 03:06:37;;;;;;;2.47;1.57;;;;;;;8.88;100.00;100674.06;4995887;28;20232;-80
2021/05/24 03:09:06;;;;;;;2.33;1.60;;;;;;;8.82;100.00;100682.38;4996477;28;20174;-80
2021/05/24 03:11:32;;;;;;;2.40;1.80;;;;;;;8.82;100.00;100681.59;4973187;28;20309;-80
2021/05/24 03:13:58;;;;;;;2.57;1.67;;;;;;;8.89;100.00;100686.50;4978799;28;20319;-80
2021/05/24 03:16:26;;;;;;;2.57;1.70;;;;;;;8.89;100.00;100691.13;4995195;28;20670;-81
2021/05/24 03:18:59;;;;;;;2.73;1.70;;;;;;;8.74;100.00;100684.78;4996651;28;20186;-81
2021/05/24 03:21:30;;;;;;;2.70;2.00;;;;;;;8.82;100.00;100677.78;4979460;28;20617;-80
2021/05/24 03:23:55;;;;;;;2.10;1.90;;;;;;;8.77;100.00;100684.25;4979284;28;20221;-81
2021/05/24 03:26:23;;;;;;;1.77;1.67;;;;;;;8.74;100.00;100684.78;4979474;28;20225;-80
2021/05/24 03:28:51;;;;;;;4.20;1.70;;;;;;;8.82;100.00;100681.59;4979854;28;20203;-79
2021/05/24 03:31:17;;;;;;;2.97;1.90;;;;;;;8.81;100.00;100679.94;4981822;28;20233;-81
2021/05/24 03:33:42;;;;;;;3.10;1.57;;;;;;;8.80;100.00;100678.31;4998766;28;20218;-80
2021/05/24 03:36:11;;;;;;;2.50;1.80;;;;;;;8.76;100.00;100671.78;4973827;28;20223;-80
2021/05/24 03:38:36;;;;;;;2.77;1.63;;;;;;;8.70;100.00;100667.41;4925572;29;20611;-81
2021/05/24 03:41:05;;;;;;;3.77;1.63;;;;;;;8.65;100.00;100664.66;4957074;28;20218;-80
2021/05/24 03:43:32;;;;;;;2.20;1.73;;;;;;;8.69;100.00;100676.59;4978440;28;20280;-80
2021/05/24 03:45:57;;;;;;;2.10;1.70;;;;;;;8.65;100.00;100670.09;4963362;28;20554;-81
2021/05/24 03:48:23;;;;;;;1.80;1.57;;;;;;;8.84;100.00;100670.25;4963431;28;20212;-80
2021/05/24 03:50:51;;;;;;;2.47;1.77;;;;;;;9.13;100.00;100666.06;4962393;28;20221;-79
2021/05/24 03:53:21;;;;;;;1.50;1.40;;;;;;;9.49;100.00;100654.34;4980027;28;20216;-80
2021/05/24 03:55:46;;;;;;;3.57;1.53;;;;;;;9.52;100.00;100656.50;4995777;28;20283;-80
2021/05/24 03:58:17;;;;;;;2.90;1.87;;;;;;;9.46;100.00;100650.25;4995988;28;20177;-80
2021/05/24 04:00:42;;;;;;;2.03;1.60;;;;;;;9.57;100.00;100648.41;4995541;28;20221;-81
2021/05/24 04:03:13;;;;;;;3.73;1.90;;;;;;;9.56;100.00;100644.03;4981936;28;20216;-80
2021/05/24 04:05:40;;;;;;;2.73;1.93;;;;;;;9.57;100.00;100650.00;4997297;28;20213;-80
2021/05/24 04:08:09;;;;;;;2.43;1.60;;;;;;;9.55;100.00;100650.56;4995552;28;20305;-80
2021/05/24 04:10:38;;;;;;;2.10;1.67;;;;;;;9.59;100.00;100647.84;5003595;28;20294;-81
2021/05/24 04:13:06;;;;;;;3.30;1.50;;;;;;;9.62;100.00;100636.47;5011071;28;20231;-81
2021/05/24 04:15:37;;;;;;;1.70;1.60;;;;;;;9.51;100.00;100636.72;5011341;28;20225;-80
2021/05/24 04:18:06;;;;;;;2.13;1.70;;;;;;;9.48;100.00;100639.13;5012270;28;20189;-79
2021/05/24 04:20:32;;;;;;;2.90;1.90;;;;;;;9.59;100.00;100630.75;4980427;28;20222;-79
2021/05/24 04:22:58;;;;;;;1.50;1.40;;;;;;;9.78;100.00;100631.91;4999022;28;20243;-80
2021/05/24 04:25:24;;;;;;;3.33;1.37;;;;;;;9.75;100.00;100629.75;4994742;28;20229;-79
2021/05/24 04:27:49;;;;;;;2.87;1.50;;;;;;;9.93;100.00;100635.50;4996210;28;20228;-80
2021/05/24 04:30:16;;;;;;;1.63;1.50;;;;;;;9.89;100.00;100631.69;4995424;28;20190;-81
2021/05/24 04:32:44;;;;;;;1.80;1.17;;;;;;;10.09;100.00;100637.16;4978328;28;20194;-79
2021/05/24 04:35:12;;;;;;;2.70;1.73;;;;;;;10.08;100.00;100622.78;4978066;28;20229;-81
2021/05/24 04:37:39;;;;;;;1.87;1.30;;;;;;;10.02;100.00;100637.44;4978645;28;20198;-80
2021/05/24 04:40:06;;;;;;;1.87;1.30;;;;;;;10.22;100.00;100642.03;4990097;28;20202;-80
2021/05/24 04:42:31;;;;;;;1.93;1.27;;;;;;;10.42;100.00;100632.84;4992058;28;20304;-81
2021/05/24 04:44:57;;;;;;;3.57;1.40;;;;;;;10.59;100.00;100630.66;4994192;28;20590;-81
2021/05/24 04:47:23;;;;;;;2.47;1.40;;;;;;;10.69;100.00;100627.91;4994426;28;20229;-81
2021/05/24 04:49:51;;;;;;;3.47;1.40;;;;;;;10.37;100.00;100625.78;4978147;28;20197;-79
2021/05/24 04:52:19;;;;;;;3.20;1.40;;;;;;;10.53;100.00;100623.63;4976837;28;20227;-80
2021/05/24 04:54:47;;;;;;;2.50;1.30;;;;;;;10.70;100.00;100628.75;4978700;28;20209;-81
2021/05/24 04:57:13;;;;;;;1.87;1.10;;;;;;;10.92;100.00;100627.38;4993868;28;20225;-80
2021/05/24 04:59:38;;;;;;;1.73;1.10;;;;;;;10.93;99.52;100626.25;4978466;28;20197;-81
2021/05/24 05:02:07;;;;;;;2.03;1.23;;;;;;;11.65;97.25;100614.63;4993089;28;20315;-80
2021/05/24 05:04:35;;;;;;;3.33;1.33;;;;;;;11.76;96.29;100606.09;4995118;28;20225;-80
2021/05/24 05:07:03;;;;;;;1.73;1.30;;;;;;;12.32;93.02;100602.69;4993395;28;20236;-80
2021/05/24 05:09:30;;;;;;;2.03;1.53;;;;;;;12.38;91.41;100605.13;4978408;28;20194;-81
2021/05/24 05:11:56;;;;;;;2.17;1.40;;;;;;;12.25;91.76;100602.22;4980974;28;20313;-80
2021/05/24 05:14:25;;;;;;;1.90;1.10;;;;;;;11.91;93.23;100605.22;4977976;28;20212;-80
2021/05/24 05:16:51;;;;;;;1.47;1.13;;;;;;;11.78;94.89;100600.38;4944854;28;20221;-81
2021/05/24 05:19:16;;;;;;;1.30;1.10;;;;;;;11.41;95.29;100610.06;4977226;28;20182;-80
2021/05/24 05:21:45;;;;;;;3.00;1.40;;;;;;;11.80;94.28;100606.38;4976493;28;20220;-81
2021/05/24 05:24:13;;;;;;;1.73;1.23;;;;;;;12.39;91.13;100608.66;4962712;28;20757;-80
2021/05/24 05:26:39;;;;;;;3.20;1.20;;;;;;;12.70;89.84;100616.28;4993391;28;20229;-80
2021/05/24 05:29:07;;;;;;;2.10;1.10;;;;;;;12.29;89.94;100608.75;4995968;28;20181;-81
2021/05/24 05:31:32;;;;;;;1.60;1.07;;;;;;;12.13;91.70;100614.56;4994422;28;20229;-80
2021/05/24 05:33:58;;;;;;;2.50;1.27;;;;;;;11.85;92.63;100607.16;4993901;28;20217;-81
2021/05/24 05:36:27;;;;;;;3.30;1.20;;;;;;;11.82;94.47;100601.44;4977465;28;20244;-79
2021/05/24 05:38:56;;;;;;;1.20;1.00;;;;;;;12.00;94.76;100605.13;4963161;28;20204;-81
2021/05/24 05:41:21;;;;;;;1.00;0.90;;;;;;;11.91;94.85;100605.22;4971404;28;20692;-81
2021/05/24 05:43:47;;;;;;;1.90;1.03;;;;;;;12.04;94.66;100606.19;4974081;28;20217;-80
2021/05/24 05:46:15;;;;;;;2.30;1.20;;;;;;;12.19;94.32;100608.78;4994045;28;20275;-81
2021/05/24 05:48:43;;;;;;;1.80;1.00;;;;;;;12.31;94.11;100617.44;5001827;28;20194;-80
2021/05/24 05:51:11;;;;;;;2.33;1.40;;;;;;;12.35;93.80;100615.78;4993800;28;20719;-80
2021/05/24 05:53:41;;;;;;;2.23;1.20;;;;;;;12.47;91.87;100617.03;4995146;28;20226;-80
2021/05/24 05:56:10;;;;;;;2.80;1.00;;;;;;;12.38;91.67;100612.44;4962758;28;20284;-80
2021/05/24 05:58:38;;;;;;;1.63;1.10;;;;;;;12.59;92.59;100608.47;4963046;28;20190;-81
2021/05/24 06:01:06;;;;;;;1.83;1.20;;;;;;;12.68;92.77;100600.19;4971941;28;20284;-80
2021/05/24 06:03:32;;;;;;;3.40;1.13;;;;;;;12.90;91.85;100597.81;4976668;28;20205;-80
2021/05/24 06:06:02;;;;;;;1.90;1.00;;;;;;;13.10;91.15;100582.06;4994493;28;20225;-81
2021/05/24 06:08:28;;;;;;;1.50;0.90;;;;;;;13.20;89.63;100592.84;4996361;28;20185;-80
2021/05/24 06:10:56;;;;;;;2.10;0.90;;;;;;;13.35;87.00;100591.84;4986141;28;20717;-79
2021/05/24 06:13:22;;;;;;;2.90;1.00;;;;;;;13.35;87.36;100576.31;4961093;28;20210;-79
2021/05/24 06:15:49;;;;;;;3.70;1.10;;;;;;;13.54;86.61;100580.69;4992839;28;20267;-80
2021/05/24 06:18:17;;;;;;;2.27;0.80;;;;;;;13.57;86.80;100591.03;4993814;28;20193;-81
2021/05/24 06:20:46;;;;;;;1.83;1.10;;;;;;;13.54;84.88;100583.41;4977938;28;20221;-81
2021/05/24 06:23:12;;;;;;;1.10;0.90;;;;;;;13.77;84.13;100574.34;4994684;28;20225;-80
2021/05/24 06:25:39;;;;;;;1.63;0.80;;;;;;;14.03;82.93;100583.84;4962245;28;20240;-81
2021/05/24 06:28:04;;;;;;;1.07;0.67;;;;;;;14.25;82.06;100577.47;4994547;28;20190;-81
2021/05/24 06:30:30;;;;;;;1.30;0.80;;;;;;;14.13;81.09;100572.75;4993448;28;20252;-79
2021/05/24 06:32:56;;;;;;;2.27;1.00;;;;;;;14.25;83.42;100582.13;4994282;28;20197;-81
2021/05/24 06:35:22;;;;;;;1.20;0.70;;;;;;;14.27;80.57;100575.22;5002929;28;20213;-80
2021/05/24 06:37:54;;;;;;;1.47;0.70;;;;;;;14.57;78.65;100573.91;5010125;28;20266;-79
2021/05/24 06:40:25;;;;;;;3.50;0.87;;;;;;;14.85;78.98;100566.28;4985770;28;20193;-79
2021/05/24 06:42:50;;;;;;;1.67;0.90;;;;;;;14.79;78.06;100563.94;5025021;28;20229;-80
2021/05/24 06:45:18;;;;;;;0.87;0.87;;;;;;;14.79;77.41;100566.66;5010659;28;20225;-81
2021/05/24 06:47:46;;;;;;;0.97;0.73;;;;;;;14.89;77.76;100569.19;5010951;28;20226;-81
2021/05/24 06:50:14;;;;;;;1.33;0.60;;;;;;;15.00;74.56;100558.59;4963034;28;20193;-80
2021/05/24 06:52:42;;;;;;;3.43;0.90;;;;;;;15.49;74.39;100562.25;4994821;28;20218;-80
2021/05/24 06:55:13;;;;;;;2.97;0.60;;;;;;;15.31;73.01;100559.63;4954131;28;20216;-81
2021/05/24 06:57:41;;;;;;;0.97;0.73;;;;;;;15.31;75.27;100554.16;5013352;28;20193;-81
2021/05/24 07:00:11;;;;;;;0.93;0.60;;;;;;;15.66;73.23;100558.84;4996097;28;20209;-81
2021/05/24 07:02:38;;;;;;;0.97;0.57;;;;;;;15.99;72.34;100561.91;4978157;28;20214;-81
2021/05/24 07:05:09;;;;;;;1.10;0.60;;;;;;;16.28;71.26;100548.63;4961288;28;20264;-81
2021/05/24 07:07:40;;;;;;;1.52;0.95;;;;;;;16.46;70.17;100547.63;4993780;28;20186;-80
2021/05/24 07:10:08;;;;;;;0.73;0.52;;;;;;;16.66;70.82;100545.97;4972661;28;20245;-81
2021/05/24 07:12:36;;;;;;;0.93;0.52;;;;;;;16.55;65.57;100543.00;4976775;28;20217;-82
2021/05/24 07:15:03;;;;;;;1.15;0.50;;;;;;;16.06;67.16;100545.03;4997011;28;20206;-80
2021/05/24 07:17:34;;;;;;;1.17;0.75;;;;;;;16.25;67.07;100543.78;4983094;28;20224;-80
2021/05/24 07:20:01;;;;;;;0.70;0.55;;;;;;;16.51;67.54;100540.06;4997215;28;20287;-80
2021/05/24 07:22:30;;;;;;;1.00;0.55;;;;;;;16.82;67.85;100544.44;4996187;28;20222;-80
2021/05/24 07:24:58;;;;;;;1.90;0.68;;;;;;;16.73;66.96;100549.06;4981609;28;20722;-80
2021/05/24 07:27:23;;;;;;;1.08;0.80;;;;;;;16.63;67.56;100543.88;4997292;28;20235;-80
2021/05/24 07:29:49;;;;;;;1.15;0.60;;;;;;;16.64;67.16;100539.19;4996693;28;20278;-81
2021/05/24 07:32:17;;;;;;;1.42;0.60;;;;;;;16.86;65.19;100534.44;4979267;28;20233;-80
2021/05/24 07:34:45;;;;;;;1.90;0.60;;;;;;;16.77;64.34;100533.59;4985974;28;20738;-79
2021/05/24 07:37:13;;;;;;;1.48;0.40;;;;;;;17.20;63.05;100529.13;5001685;28;20256;-80
2021/05/24 07:39:39;;;;;;;0.50;0.50;;;;;;;17.82;62.15;100524.72;4980266;28;20182;-81
2021/05/24 07:42:07;;;;;;;1.17;0.60;;;;;;;18.05;56.95;100526.16;4958097;28;20691;-80
2021/05/24 07:44:35;;;;;;;0.45;0.45;;;;;;;18.46;58.00;100515.47;4946898;29;20250;-81
2021/05/24 07:47:03;;;;;;;1.38;0.45;;;;;;;18.49;55.56;100524.66;4940189;29;20231;-80
2021/05/24 07:49:29;;;;;;;1.20;0.40;;;;;;;18.38;56.83;100514.34;4957702;29;20713;-81
2021/05/24 07:51:57;;;;;;;0.70;0.45;;;;;;;18.01;55.17;100507.91;4956015;28;20234;-80
2021/05/24 07:54:22;;;;;;;1.30;0.50;;;;;;;18.02;58.25;100504.00;4942853;29;20217;-81
2021/05/24 07:56:48;;;;;;;0.63;0.60;;;;;;;17.51;56.96;100487.53;4957133;28;20223;-79
2021/05/24 07:59:18;;;;;;;0.70;0.60;;;;;;;17.94;59.45;100502.09;4974128;28;20194;-79
2021/05/24 08:01:46;;;;;;;0.60;0.47;;;;;;;17.98;58.23;100481.84;4940967;29;20223;-79
2021/05/24 08:04:12;;;;;;;1.15;0.50;;;;;;;18.32;56.17;100482.66;4957325;29;20221;-80
2021/05/24 08:06:38;;;;;;;1.52;0.40;;;;;;;18.27;56.38;100488.31;4956368;28;20223;-80
2021/05/24 08:09:04;;;;;;;1.08;0.57;;;;;;;17.61;55.80;100483.66;4957683;28;20230;-81
2021/05/24 08:11:37;;;;;;;1.20;0.40;;;;;;;17.97;55.20;100494.00;4967781;28;20225;-79
2021/05/24 08:14:06;;;;;;;1.38;0.50;;;;;;;18.00;55.22;100487.03;4996045;28;20442;-79
2021/05/24 08:16:32;;;;;;;1.20;0.45;;;;;;;18.07;55.56;100487.34;4995910;28;20256;-80
2021/05/24 08:18:58;;;;;;;2.05;0.63;;;;;;;18.11;55.59;100488.34;4995828;28;20186;-81
2021/05/24 08:21:26;;;;;;;0.70;0.40;;;;;;;18.11;54.18;100480.09;4996403;28;20233;-79
2021/05/24 08:23:51;;;;;;;1.05;0.50;;;;;;;18.45;54.38;100470.66;4995939;28;20213;-78
2021/05/24 08:26:19;;;;;;;0.40;0.40;;;;;;;18.63;53.36;100466.72;4961538;28;20261;-79
2021/05/24 08:28:45;;;;;;;0.30;0.30;;;;;;;18.64;53.01;100474.66;5000570;28;20172;-80
2021/05/24 08:31:13;;;;;;;1.55;0.70;;;;;;;18.78;52.71;100458.69;4980747;28;20221;-80
2021/05/24 08:33:41;;;;;;;1.30;0.55;;;;;;;18.97;53.75;100457.19;4995833;28;20206;-79
2021/05/24 08:36:09;;;;;;;1.23;0.50;;;;;;;19.13;49.71;100452.72;4978800;28;20649;-81
2021/05/24 08:38:35;;;;;;;1.17;0.50;;;;;;;19.16;49.66;100443.78;4995808;28;20190;-80
2021/05/24 08:41:07;;;;;;;0.98;0.50;;;;;;;19.16;51.35;100443.78;4989483;28;20213;-81
2021/05/24 08:43:36;;;;;;;1.00;0.40;;;;;;;19.29;48.40;100440.78;4995008;28;20209;-82
2021/05/24 08:46:01;;;;;;;1.73;0.47;;;;;;;19.12;49.90;100448.38;4965402;28;20230;-81
2021/05/24 08:48:29;;;;;;;0.80;0.30;;;;;;;19.26;49.34;100437.09;4998014;28;20182;-80
2021/05/24 08:51:00;;;;;;;1.10;0.35;;;;;;;19.65;50.92;100445.69;4979553;28;20297;-81
2021/05/24 08:53:29;;;;;;;1.25;0.30;;;;;;;19.96;48.82;100436.69;4996741;28;20221;-83
2021/05/24 08:55:57;;;;;;;0.30;0.30;;;;;;;20.21;47.81;100441.94;4966479;28;20244;-79
2021/05/24 08:58:23;;;;;;;1.23;0.40;;;;;;;20.01;46.88;100438.44;5003050;28;20204;-80
2021/05/24 09:00:51;;;;;;;2.03;0.45;;;;;;;20.02;48.80;100429.84;5012477;28;20225;-82
2021/05/24 09:03:24;;;;;;;1.40;0.63;;;;;;;19.96;47.64;100422.88;5010843;28;20213;-81
2021/05/24 09:05:53;;;;;;;1.15;0.45;;;;;;;20.08;48.30;100428.47;5010429;28;20224;-80
2021/05/24 09:08:21;;;;;;;0.55;0.40;;;;;;;20.14;47.47;100427.09;5010919;28;20260;-81
2021/05/24 09:10:51;;;;;;;0.70;0.40;;;;;;;19.92;45.51;100419.19;4987883;28;20673;-80
2021/05/24 09:13:19;;;;;;;1.45;0.50;;;;;;;19.66;45.92;100430.78;4995401;28;20273;-81
2021/05/24 09:15:49;;;;;;;0.32;0.30;;;;;;;19.73;45.25;100412.56;4996128;28;20205;-79
2021/05/24 09:18:18;;;;;;;1.23;0.40;;;;;;;19.82;46.18;100408.59;5010851;28;20290;-78
2021/05/24 09:20:50;;;;;;;0.55;0.35;;;;;;;19.68;44.95;100408.03;5012105;28;20252;-79
2021/05/24 09:23:26;;;;;;;1.00;0.60;;;;;;;19.73;46.53;100416.13;5010576;28;20209;-79
2021/05/24 09:25:55;;;;;;;1.73;0.40;;;;;;;20.06;45.11;100395.69;4979069;28;20236;-79
2021/05/24 09:28:32;;;;;;;1.33;0.50;;;;;;;20.43;44.38;100386.34;5009971;28;20212;-79
2021/05/24 09:30:59;;;;;;;1.67;0.43;;;;;;;20.47;43.46;100378.97;4995229;28;20609;-80
2021/05/24 09:33:27;;;;;;;1.05;0.47;;;;;;;20.44;45.57;100377.72;5011166;28;20217;-79
2021/05/24 09:35:56;;;;;;;1.27;0.40;;;;;;;20.62;44.86;100379.16;4979215;28;20252;-80
2021/05/24 09:38:31;;;;;;;1.27;0.50;;;;;;;20.92;43.78;100369.47;4977992;28;20185;-79
2021/05/24 09:41:02;;;;;;;0.90;0.50;;;;;;;20.71;41.85;100385.34;4972429;28;20213;-80
2021/05/24 09:43:37;;;;;;;0.70;0.30;;;;;;;20.49;42.70;100383.03;4999347;28;20205;-80
2021/05/24 09:46:25;;;;;;;1.05;0.50;;;;;;;20.82;43.57;100361.66;4995618;28;20584;-81
2021/05/24 09:48:52;;;;;;;1.98;0.50;;;;;;;21.05;41.81;100362.78;4986633;28;20200;-80
2021/05/24 09:51:25;;;;;;;0.77;0.28;;;;;;;20.45;38.59;100371.03;4961381;28;20269;-80
2021/05/24 09:53:56;;;;;;;0.85;0.30;;;;;;;20.63;39.70;100380.75;4974434;28;20210;-79
2021/05/24 09:56:21;;;;;;;0.65;0.28;;;;;;;20.35;39.62;100364.38;4973741;28;20210;-80
2021/05/24 09:59:03;;;;;;;1.65;0.38;;;;;;;20.31;40.74;100357.91;4973885;28;20175;-78
2021/05/24 10:01:38;;;;;;;0.70;0.30;;;;;;;20.73;40.16;100363.75;4959072;28;20224;-81
2021/05/24 10:04:10;;;;;;;0.65;0.40;;;;;;;20.93;38.56;100346.22;4960224;28;20205;-82
2021/05/24 10:06:38;;;;;;;0.52;0.30;;;;;;;20.95;38.46;100349.44;4959547;28;20307;-78
2021/05/24 10:09:05;;;;;;;0.45;0.20;;;;;;;21.39;37.73;100355.56;4959261;28;20162;-81
2021/05/24 10:11:39;;;;;;;0.52;0.20;;;;;;;20.97;38.51;100347.13;4969038;28;20224;-79
2021/05/24 10:14:04;;;;;;;0.57;0.32;;;;;;;21.48;37.96;100336.91;4977970;28;20213;-79
2021/05/24 10:16:36;;;;;;;0.45;0.22;;;;;;;21.55;37.32;100337.09;4992625;28;20456;-79
2021/05/24 10:19:05;;;;;;;0.95;0.40;;;;;;;21.33;39.15;100345.88;5010362;28;20193;-79
2021/05/24 10:21:35;;;;;;;2.35;0.30;;;;;;;20.77;37.86;100342.56;5011018;28;20451;-80
2021/05/24 10:24:01;;;;;;;0.57;0.30;;;;;;;20.43;36.45;100342.19;4994899;28;20205;-80
2021/05/24 10:26:27;;;;;;;1.10;0.40;;;;;;;20.35;35.77;100345.88;4993859;28;20225;-82
2021/05/24 10:28:55;;;;;;;0.77;0.20;;;;;;;20.97;34.70;100341.59;4978165;28;20197;-82
2021/05/24 10:31:24;;;;;;;0.95;0.20;;;;;;;21.22;36.25;100332.13;4994701;28;20239;-80
2021/05/24 10:33:50;;;;;;;0.65;0.30;;;;;;;20.86;36.20;100334.97;4994918;28;20233;-80
2021/05/24 10:36:36;;;;;;;0.30;0.20;;;;;;;21.10;35.79;100324.66;5012085;28;20221;-80
2021/05/24 10:39:25;;;;;;;0.25;0.25;;;;;;;20.83;36.27;100332.88;4995589;28;20189;-79
2021/05/24 10:41:58;;;;;;;2.10;0.38;;;;;;;21.16;36.19;100322.47;5002902;28;20221;-79
2021/05/24 10:44:44;;;;;;;1.85;0.30;;;;;;;21.78;35.29;100329.84;4979395;28;20292;-80
2021/05/24 10:47:22;;;;;;;0.77;0.20;;;;;;;21.89;34.17;100323.44;5011533;28;20233;-79
2021/05/24 10:50:05;;;;;;;0.65;0.30;;;;;;;21.76;33.57;100316.38;4980519;28;20212;-79
2021/05/24 10:52:40;;;;;;;0.70;0.20;;;;;;;21.93;33.70;100310.50;4999215;28;20233;-79
2021/05/24 10:55:27;;;;;;;0.57;0.32;;;;;;;22.65;34.68;100289.41;4984284;28;20257;-81
2021/05/24 10:57:56;;;;;;;0.63;0.30;;;;;;;22.57;33.02;100290.44;5000766;28;20257;-81
2021/05/24 11:00:26;;;;;;;0.22;0.22;;;;;;;22.12;31.70;100281.00;4999859;28;20189;-80
2021/05/24 11:02:55;;;;;;;0.50;0.32;;;;;;;20.71;34.76;100299.75;4985058;28;20158;-78
2021/05/24 11:05:31;;;;;;;0.70;0.32;;;;;;;20.93;34.55;100299.25;4982786;28;20181;-80
2021/05/24 11:08:00;;;;;;;1.42;0.55;;;;;;;21.53;34.65;100292.41;4985927;28;20196;-82
2021/05/24 11:10:29;;;;;;;1.88;0.32;;;;;;;20.90;35.03;100289.72;4992772;28;20230;-80
2021/05/24 11:13:11;;;;;;;0.45;0.30;;;;;;;20.58;36.07;100289.84;4998303;28;20261;-81
2021/05/24 11:15:40;;;;;;;0.20;0.20;;;;;;;20.63;36.54;100291.63;5014660;28;20221;-81
2021/05/24 11:18:11;;;;;;;1.60;0.50;;;;;;;20.43;37.99;100275.94;4996823;28;20220;-79
2021/05/24 11:20:54;;;;;;;0.38;0.32;;;;;;;20.90;37.61;100284.19;5013138;28;20229;-79
2021/05/24 11:23:48;;;;;;;1.75;0.43;;;;;;;21.97;36.23;100269.09;4997127;28;20224;-79
2021/05/24 11:26:28;;;;;;;1.75;0.32;;;;;;;21.12;36.49;100266.31;5014338;28;20214;-80
2021/05/24 11:28:55;;;;;;;0.70;0.28;;;;;;;20.99;36.28;100253.69;4996468;28;20197;-80
2021/05/24 11:31:33;;;;;;;1.70;0.40;;;;;;;20.87;35.58;100253.72;4982659;28;20229;-80
2021/05/24 11:34:01;;;;;;;0.40;0.40;;;;;;;20.68;36.60;100255.50;5013631;28;20205;-78